Time;durP1;ratioP1;P1;durP2;ratioP2;P2;SDS_P1;SDS_P2;PMS_P1;PMS_P2;Temp;Humidity;BMP_temperature;BMP_pressure;BME280_temperature;BME280_humidity;BME280_pressure;Samples;Min_cycle;Max_cycle;Signal;HPM_P1;HPM_P2
2023/11/08 00:01:32;;;;;;;0.30;0.20;;;;;;;10.60;89.13;100144.97;5053776;28;20534;-48
2023/11/08 00:03:58;;;;;;;0.30;0.20;;;;;;;10.76;89.32;100146.22;5050078;28;20491;-47
2023/11/08 00:06:26;;;;;;;0.30;0.20;;;;;;;10.65;90.29;100148.34;5044409;28;20452;-47
2023/11/08 00:08:53;;;;;;;0.30;0.20;;;;;;;10.52;89.66;100133.69;5047005;28;20467;-47
2023/11/08 00:11:23;;;;;;;0.30;0.20;;;;;;;10.59;90.47;100138.78;5053626;28;20516;-47
2023/11/08 00:13:54;;;;;;;0.30;0.20;;;;;;;10.62;89.65;100140.47;5053208;28;20978;-47
2023/11/08 00:16:21;;;;;;;0.30;0.20;;;;;;;10.44;90.67;100141.03;5053481;28;20554;-47
2023/11/08 00:18:47;;;;;;;0.30;0.20;;;;;;;10.58;90.38;100144.16;5053014;28;20525;-48
2023/11/08 00:21:14;;;;;;;0.30;0.20;;;;;;;10.73;89.68;100134.81;5053269;28;20493;-48
2023/11/08 00:23:41;;;;;;;0.30;0.20;;;;;;;10.59;89.93;100137.91;5053326;28;20501;-48
2023/11/08 00:26:07;;;;;;;0.30;0.20;;;;;;;10.66;89.76;100144.75;5053415;28;20443;-49
2023/11/08 00:28:34;;;;;;;0.30;0.20;;;;;;;10.58;89.75;100146.81;5051065;28;20837;-48
2023/11/08 00:31:01;;;;;;;0.30;0.20;;;;;;;10.60;90.08;100142.31;5042360;28;20450;-48
2023/11/08 00:33:27;;;;;;;0.30;0.20;;;;;;;10.84;89.73;100146.00;5052785;28;20494;-48
2023/11/08 00:35:54;;;;;;;0.30;0.20;;;;;;;10.73;89.92;100153.44;5042866;28;20459;-48
2023/11/08 00:38:21;;;;;;;0.30;0.20;;;;;;;10.70;90.28;100149.09;5044516;28;20577;-48
2023/11/08 00:48:58;;;;;;;0.30;0.20;;;;;;;10.55;90.23;100158.41;5052875;28;20446;-47
2023/11/08 00:52:00;;;;;;;0.30;0.20;;;;;;;10.55;90.44;100141.56;5052656;28;20439;-48
2023/11/08 00:54:27;;;;;;;0.30;0.20;;;;;;;10.68;90.02;100156.22;5052395;28;20459;-48
2023/11/08 00:56:53;;;;;;;0.30;0.20;;;;;;;10.43;90.56;100142.81;5052945;28;20447;-47
2023/11/08 00:59:21;;;;;;;0.30;0.20;;;;;;;10.47;90.84;100162.19;5052435;28;20497;-48
2023/11/08 01:01:48;;;;;;;0.30;0.20;;;;;;;10.52;90.76;100158.47;5052634;28;20475;-48
2023/11/08 01:04:14;;;;;;;0.30;0.20;;;;;;;10.49;90.51;100158.56;5047530;28;20470;-48
2023/11/08 01:06:41;;;;;;;0.30;0.20;;;;;;;10.44;90.96;100154.31;5032661;28;20452;-48
2023/11/08 01:09:09;;;;;;;0.30;0.20;;;;;;;10.50;90.95;100157.66;5047388;28;20553;-47
2023/11/08 01:11:35;;;;;;;0.30;0.20;;;;;;;10.58;90.76;100158.31;5052622;28;20449;-48
2023/11/08 01:14:03;;;;;;;0.30;0.20;;;;;;;10.48;90.99;100169.25;5052258;28;20446;-49
2023/11/08 01:16:29;;;;;;;0.30;0.20;;;;;;;10.44;90.90;100168.47;5052360;28;20504;-48
2023/11/08 01:18:56;;;;;;;0.30;0.20;;;;;;;10.44;91.29;100159.66;5051967;28;20998;-48
2023/11/08 01:21:22;;;;;;;0.30;0.20;;;;;;;10.29;91.27;100167.16;5052006;28;20898;-48
2023/11/08 01:23:51;;;;;;;0.30;0.20;;;;;;;10.35;91.23;100163.44;5052470;28;20461;-48
2023/11/08 01:26:17;;;;;;;0.30;0.20;;;;;;;10.34;91.87;100167.88;5052188;28;20512;-48
2023/11/08 01:28:45;;;;;;;0.30;0.20;;;;;;;10.44;91.81;100175.59;5048725;28;20470;-48
2023/11/08 01:31:11;;;;;;;0.30;0.20;;;;;;;10.38;91.75;100169.53;5042464;28;20457;-48
2023/11/08 01:33:38;;;;;;;0.30;0.20;;;;;;;10.35;91.90;100168.75;5051204;28;21033;-48
2023/11/08 01:36:05;;;;;;;0.30;0.20;;;;;;;10.48;91.70;100172.78;5041141;28;20833;-48
2023/11/08 01:38:32;;;;;;;0.30;0.20;;;;;;;10.62;91.71;100175.88;5049641;28;20577;-48
2023/11/08 01:40:59;;;;;;;0.30;0.20;;;;;;;10.44;91.83;100178.25;5052044;28;20943;-48
2023/11/08 01:43:30;;;;;;;0.30;0.20;;;;;;;10.47;91.53;100167.50;5051681;28;20457;-48
2023/11/08 01:46:23;;;;;;;0.30;0.20;;;;;;;10.52;92.14;100170.91;5051897;28;20447;-49
2023/11/08 01:48:54;;;;;;;0.30;0.20;;;;;;;10.28;91.97;100160.09;5051767;28;20560;-48
2023/11/08 01:51:21;;;;;;;0.30;0.20;;;;;;;10.25;92.12;100159.28;5051563;28;20958;-48
2023/11/08 01:53:51;;;;;;;0.30;0.20;;;;;;;10.35;92.35;100156.34;5051717;28;20450;-48
2023/11/08 01:56:19;;;;;;;0.30;0.20;;;;;;;10.26;92.05;100153.06;5051728;28;20450;-47
2023/11/08 01:58:47;;;;;;;0.30;0.20;;;;;;;10.25;91.91;100159.28;5051506;28;20569;-48
2023/11/08 02:01:17;;;;;;;0.30;0.20;;;;;;;10.15;92.33;100157.81;5051025;28;20501;-48
2023/11/08 02:03:45;;;;;;;0.30;0.20;;;;;;;10.19;92.16;100159.47;5050131;28;20905;-48
2023/11/08 02:06:13;;;;;;;0.30;0.20;;;;;;;10.11;92.23;100164.97;5033371;28;20447;-48
2023/11/08 02:08:40;;;;;;;0.30;0.20;;;;;;;9.93;92.99;100161.06;5044235;28;20521;-48
2023/11/08 02:11:08;;;;;;;0.30;0.20;;;;;;;9.91;93.14;100170.00;5051443;28;20455;-48
2023/11/08 02:13:34;;;;;;;0.30;0.20;;;;;;;10.05;92.88;100162.50;5051298;28;20988;-48
2023/11/08 02:16:02;;;;;;;0.30;0.20;;;;;;;10.11;92.63;100159.66;5051326;28;20960;-48
2023/11/08 02:18:31;;;;;;;0.30;0.20;;;;;;;10.13;92.71;100164.94;5051278;28;20934;-49
2023/11/08 02:21:02;;;;;;;0.30;0.20;;;;;;;10.02;93.19;100163.47;5025186;28;20454;-48
2023/11/08 02:23:31;;;;;;;0.30;0.20;;;;;;;10.07;93.11;100163.34;5051331;28;20493;-48
2023/11/08 02:25:57;;;;;;;0.30;0.20;;;;;;;10.05;93.28;100163.38;5051228;28;20528;-48
2023/11/08 02:28:24;;;;;;;0.30;0.20;;;;;;;9.93;93.48;100169.03;5050603;28;20886;-48
2023/11/08 02:30:54;;;;;;;0.30;0.20;;;;;;;10.05;93.13;100168.69;5038909;28;20450;-48
2023/11/08 02:33:22;;;;;;;0.30;0.20;;;;;;;10.01;93.45;100171.50;5051364;28;20823;-48
2023/11/08 02:35:49;;;;;;;0.30;0.20;;;;;;;10.09;92.95;100173.00;5041077;28;20496;-48
2023/11/08 02:38:16;;;;;;;0.30;0.20;;;;;;;9.87;93.66;100174.53;5047040;28;20498;-48
2023/11/08 02:40:42;;;;;;;0.30;0.20;;;;;;;10.15;93.33;100171.09;5051147;28;20447;-49
2023/11/08 02:43:09;;;;;;;0.30;0.20;;;;;;;10.05;93.42;100170.47;5051577;28;20457;-48
2023/11/08 02:45:37;;;;;;;0.30;0.20;;;;;;;10.30;92.85;100174.22;5051306;28;20456;-48
2023/11/08 02:48:05;;;;;;;0.30;0.20;;;;;;;10.21;92.90;100168.25;5050999;28;20466;-48
2023/11/08 02:50:33;;;;;;;0.30;0.20;;;;;;;10.43;92.72;100165.88;5051349;28;20458;-49
2023/11/08 02:53:00;;;;;;;0.30;0.20;;;;;;;10.19;93.09;100167.44;5050972;28;20788;-48
2023/11/08 02:55:27;;;;;;;0.30;0.20;;;;;;;10.19;92.60;100162.97;5051113;28;20451;-48
2023/11/08 02:57:54;;;;;;;0.30;0.20;;;;;;;10.16;92.99;100163.06;5051072;28;20586;-48
2023/11/08 03:00:21;;;;;;;0.30;0.20;;;;;;;10.10;92.43;100155.28;5051094;28;20965;-48
2023/11/08 03:02:47;;;;;;;0.30;0.20;;;;;;;10.16;92.39;100167.53;5050840;28;20455;-48
2023/11/08 03:05:21;;;;;;;0.30;0.20;;;;;;;10.18;92.45;100171.00;5038414;28;20475;-48
2023/11/08 03:07:52;;;;;;;0.30;0.20;;;;;;;10.03;93.23;100165.22;5035631;28;20451;-49
2023/11/08 03:10:20;;;;;;;0.30;0.20;;;;;;;10.08;93.20;100160.63;5051145;28;20449;-48
2023/11/08 03:12:48;;;;;;;0.30;0.20;;;;;;;10.21;92.69;100166.50;5051646;28;20513;-48
2023/11/08 03:15:16;;;;;;;0.30;0.20;;;;;;;10.16;92.37;100176.34;5054640;28;20869;-48
2023/11/08 03:17:44;;;;;;;0.30;0.20;;;;;;;10.21;92.90;100184.19;5054220;28;20451;-48
2023/11/08 03:20:15;;;;;;;0.30;0.20;;;;;;;10.24;92.65;100182.34;5054367;28;20969;-49
2023/11/08 03:22:41;;;;;;;0.30;0.20;;;;;;;10.24;92.30;100187.66;5054650;28;20878;-48
2023/11/08 03:25:13;;;;;;;0.30;0.20;;;;;;;10.15;92.63;100185.25;5054360;28;20466;-48
2023/11/08 03:27:41;;;;;;;0.30;0.20;;;;;;;10.37;92.47;100188.16;5054512;28;20442;-49
2023/11/08 03:30:16;;;;;;;2.37;2.30;;;;;;;10.09;92.74;100193.38;5040753;28;20509;-49
2023/11/08 03:32:43;;;;;;;0.30;0.20;;;;;;;10.14;92.98;100183.47;5054094;28;20454;-49
2023/11/08 03:35:11;;;;;;;0.30;0.20;;;;;;;10.14;93.09;100191.44;5043855;28;20451;-48
2023/11/08 03:37:40;;;;;;;0.30;0.20;;;;;;;10.29;92.77;100201.69;5049843;28;20498;-48
2023/11/08 03:40:11;;;;;;;0.30;0.20;;;;;;;10.31;92.61;100197.19;5054052;28;20574;-48
2023/11/08 03:42:39;;;;;;;0.30;0.20;;;;;;;10.33;92.87;100203.34;5053977;28;20824;-48
2023/11/08 03:45:06;;;;;;;0.30;0.20;;;;;;;10.23;92.86;100211.59;5053839;28;20446;-49
2023/11/08 03:47:33;;;;;;;0.30;0.20;;;;;;;10.11;93.17;100210.13;5053795;28;20494;-49
2023/11/08 03:49:59;;;;;;;0.30;0.20;;;;;;;10.19;93.35;100204.63;5053820;28;20462;-48
2023/11/08 03:52:27;;;;;;;0.30;0.20;;;;;;;10.17;93.52;100217.94;5054065;28;20486;-48
2023/11/08 03:54:54;;;;;;;0.30;0.20;;;;;;;10.23;93.13;100209.81;5053731;28;20450;-48
2023/11/08 03:57:20;;;;;;;0.30;0.20;;;;;;;10.24;92.89;100227.50;5053714;28;20541;-48
2023/11/08 03:59:49;;;;;;;0.30;0.20;;;;;;;10.13;93.15;100218.91;5053283;28;20913;-48
2023/11/08 04:02:20;;;;;;;0.30;0.20;;;;;;;10.11;93.54;100223.41;5053831;28;20533;-48
2023/11/08 04:04:47;;;;;;;0.30;0.20;;;;;;;10.07;93.63;100235.03;5028557;28;20455;-48
2023/11/08 04:07:14;;;;;;;0.30;0.20;;;;;;;10.19;93.12;100229.38;5033887;28;20956;-48
2023/11/08 04:09:41;;;;;;;0.30;0.20;;;;;;;10.30;92.80;100230.00;5053598;28;20561;-48
2023/11/08 04:12:09;;;;;;;0.30;0.20;;;;;;;10.23;93.08;100224.88;5053402;28;20457;-49
2023/11/08 04:14:36;;;;;;;0.30;0.20;;;;;;;10.21;93.31;100234.66;5053660;28;20475;-48
2023/11/08 04:17:03;;;;;;;0.30;0.20;;;;;;;10.22;93.46;100236.44;5053543;28;20461;-49
2023/11/08 04:19:29;;;;;;;0.30;0.20;;;;;;;10.13;93.64;100236.63;5053168;28;20490;-49
2023/11/08 04:21:56;;;;;;;0.30;0.20;;;;;;;10.21;93.67;100234.66;5053263;28;20486;-48
2023/11/08 04:24:22;;;;;;;0.30;0.20;;;;;;;10.18;93.34;100234.75;5053116;28;20551;-48
2023/11/08 04:26:49;;;;;;;0.30;0.20;;;;;;;10.00;94.52;100231.66;5053130;28;20451;-48
2023/11/08 04:29:15;;;;;;;0.30;0.20;;;;;;;10.01;94.82;100237.88;5045570;28;20456;-48
2023/11/08 04:31:42;;;;;;;0.30;0.20;;;;;;;10.18;94.34;100232.97;5047461;28;20533;-48
2023/11/08 04:34:09;;;;;;;0.30;0.20;;;;;;;10.05;94.34;100235.09;5048321;28;20534;-48
2023/11/08 04:36:36;;;;;;;0.30;0.20;;;;;;;10.14;94.43;100236.59;5042297;28;20459;-48
2023/11/08 04:39:02;;;;;;;0.30;0.20;;;;;;;10.05;94.83;100221.81;5052965;28;20494;-48
2023/11/08 04:41:29;;;;;;;0.30;0.20;;;;;;;10.18;93.82;100235.63;5052669;28;20905;-48
2023/11/08 04:43:56;;;;;;;0.30;0.20;;;;;;;10.09;93.92;100236.72;5053112;28;20455;-48
2023/11/08 04:46:22;;;;;;;0.30;0.20;;;;;;;9.93;95.07;100237.19;5053053;28;20476;-48
2023/11/08 04:48:50;;;;;;;0.30;0.20;;;;;;;9.93;95.11;100234.53;5052814;28;20469;-48
2023/11/08 04:51:16;;;;;;;0.30;0.20;;;;;;;9.78;95.68;100235.81;5052872;28;20497;-48
2023/11/08 04:53:43;;;;;;;0.30;0.20;;;;;;;9.86;95.30;100230.28;5052710;28;20830;-48
2023/11/08 04:56:09;;;;;;;0.30;0.20;;;;;;;9.83;95.70;100235.69;5052429;28;20455;-48
2023/11/08 04:58:35;;;;;;;0.30;0.20;;;;;;;9.87;95.55;100242.66;5052802;28;20505;-48
2023/11/08 05:01:02;;;;;;;0.30;0.20;;;;;;;9.76;96.15;100235.00;5052616;28;20493;-48
2023/11/08 05:03:29;;;;;;;0.30;0.20;;;;;;;9.78;95.96;100244.66;5052422;28;20471;-48
2023/11/08 05:05:55;;;;;;;0.30;0.20;;;;;;;9.93;95.77;100237.19;5033181;28;20447;-48
2023/11/08 05:08:23;;;;;;;0.30;0.20;;;;;;;9.97;95.50;100244.16;5041029;28;20467;-47
2023/11/08 05:10:50;;;;;;;0.30;0.20;;;;;;;9.80;95.53;100242.81;5052227;28;20454;-48
2023/11/08 05:13:16;;;;;;;0.30;0.20;;;;;;;9.79;96.54;100241.09;5052209;28;21109;-48
2023/11/08 05:15:43;;;;;;;0.30;0.20;;;;;;;9.82;96.04;100250.75;5052187;28;20426;-47
2023/11/08 05:18:09;;;;;;;0.30;0.20;;;;;;;9.69;96.81;100242.22;5052178;28;20482;-48
2023/11/08 05:20:37;;;;;;;0.30;0.20;;;;;;;9.71;97.08;100240.41;5052188;28;20955;-47
2023/11/08 05:23:03;;;;;;;0.30;0.20;;;;;;;9.69;97.50;100242.22;5052052;28;20454;-48
2023/11/08 05:25:30;;;;;;;0.30;0.20;;;;;;;9.64;97.74;100243.28;5052426;28;20474;-48
2023/11/08 05:27:58;;;;;;;0.30;0.20;;;;;;;9.78;97.22;100244.66;5052177;28;20474;-48
2023/11/08 05:30:25;;;;;;;0.30;0.20;;;;;;;9.72;97.16;100241.28;5038776;28;20526;-48
2023/11/08 05:32:52;;;;;;;0.30;0.20;;;;;;;9.64;97.61;100245.94;5052132;28;20475;-47
2023/11/08 05:35:19;;;;;;;0.30;0.20;;;;;;;9.71;97.79;100247.50;5040746;28;20479;-47
2023/11/08 05:37:45;;;;;;;0.30;0.20;;;;;;;9.68;97.96;100243.13;5047259;28;20459;-48
2023/11/08 05:40:12;;;;;;;0.30;0.20;;;;;;;9.63;98.17;100233.56;5051958;28;20491;-48
2023/11/08 05:42:39;;;;;;;0.30;0.20;;;;;;;9.67;98.92;100233.44;5052002;28;20480;-48
2023/11/08 05:45:07;;;;;;;0.30;0.20;;;;;;;9.74;98.92;100229.72;5051848;28;20482;-47
2023/11/08 05:47:34;;;;;;;0.30;0.20;;;;;;;9.91;98.50;100239.03;5051699;28;20829;-48
2023/11/08 05:50:00;;;;;;;0.30;0.20;;;;;;;9.94;97.83;100241.59;5051564;28;20474;-48
2023/11/08 05:52:27;;;;;;;0.30;0.20;;;;;;;9.97;98.03;100249.47;5051654;28;20477;-48
2023/11/08 05:54:54;;;;;;;0.50;0.50;;;;;;;9.86;98.48;100247.09;5051787;28;20834;-48
2023/11/08 05:57:20;;;;;;;0.30;0.20;;;;;;;9.95;97.97;100253.94;5051916;28;20454;-48
2023/11/08 05:59:47;;;;;;;0.30;0.20;;;;;;;9.87;98.19;100258.56;5051307;28;20490;-48
2023/11/08 06:02:13;;;;;;;0.30;0.20;;;;;;;9.86;98.22;100264.81;5051917;28;20451;-48
2023/11/08 06:04:40;;;;;;;0.30;0.20;;;;;;;9.96;98.47;100261.88;5043192;28;20513;-48
2023/11/08 06:07:06;;;;;;;0.30;0.20;;;;;;;9.95;98.20;100264.56;5031883;28;20452;-48
2023/11/08 06:09:33;;;;;;;0.30;0.20;;;;;;;10.05;97.95;100253.66;5050406;28;20466;-48
2023/11/08 06:12:00;;;;;;;0.30;0.20;;;;;;;10.01;98.05;100257.34;5051690;28;20509;-48
2023/11/08 06:14:26;;;;;;;0.30;0.20;;;;;;;10.03;98.43;100266.13;5051303;28;20447;-48
2023/11/08 06:16:53;;;;;;;0.30;0.20;;;;;;;9.93;98.80;100269.06;5051485;28;20451;-48
2023/11/08 06:19:20;;;;;;;0.30;0.20;;;;;;;9.93;98.79;100267.28;5051044;28;20810;-48
2023/11/08 06:21:50;;;;;;;0.30;0.20;;;;;;;9.99;98.85;100269.75;5051676;28;20483;-48
2023/11/08 06:24:16;;;;;;;0.30;0.20;;;;;;;9.92;98.78;100267.31;5051277;28;20453;-48
2023/11/08 06:26:43;;;;;;;0.30;0.20;;;;;;;9.99;99.01;100268.88;5051767;28;20478;-49
2023/11/08 06:29:09;;;;;;;0.30;0.20;;;;;;;10.01;98.50;100269.75;5044254;28;21051;-48
2023/11/08 06:31:36;;;;;;;0.30;0.20;;;;;;;10.05;98.12;100274.91;5044919;28;20562;-48
2023/11/08 06:34:03;;;;;;;0.30;0.20;;;;;;;10.01;98.42;100272.41;5045979;28;20539;-48
2023/11/08 06:36:30;;;;;;;0.30;0.20;;;;;;;10.06;98.37;100273.13;5040738;28;20486;-49
2023/11/08 06:38:56;;;;;;;0.30;0.20;;;;;;;10.05;98.28;100268.72;5051116;28;20487;-48
2023/11/08 06:41:24;;;;;;;0.30;0.20;;;;;;;10.04;98.21;100269.66;5051108;28;20542;-49
2023/11/08 06:43:51;;;;;;;0.30;0.20;;;;;;;9.97;98.43;100262.75;5051213;28;20559;-48
2023/11/08 06:46:18;;;;;;;0.30;0.20;;;;;;;9.98;97.98;100264.47;5051175;28;20480;-49
2023/11/08 06:48:46;;;;;;;0.30;0.20;;;;;;;10.16;97.79;100271.09;5054819;28;20533;-47
2023/11/08 06:51:13;;;;;;;0.30;0.20;;;;;;;10.18;97.61;100277.25;5053581;28;20500;-49
2023/11/08 06:53:39;;;;;;;0.30;0.20;;;;;;;10.16;98.05;100281.72;5055204;28;20537;-48
2023/11/08 06:56:07;;;;;;;0.30;0.20;;;;;;;10.21;97.71;100286.03;5054955;28;20450;-48
2023/11/08 06:58:33;;;;;;;0.30;0.20;;;;;;;10.20;97.13;100278.06;5054763;28;20847;-48
2023/11/08 07:01:05;;;;;;;0.30;0.20;;;;;;;10.24;97.68;100279.75;5054429;28;20570;-48
2023/11/08 07:03:37;;;;;;;0.30;0.20;;;;;;;10.22;97.26;100284.25;5054283;28;20584;-48
2023/11/08 07:06:04;;;;;;;0.30;0.20;;;;;;;10.16;97.28;100287.91;5035323;28;20454;-48
2023/11/08 07:08:34;;;;;;;0.30;0.20;;;;;;;10.11;97.81;100281.84;5044692;28;20479;-49
2023/11/08 07:11:00;;;;;;;0.30;0.20;;;;;;;10.25;97.58;100289.47;5054399;28;20844;-49
2023/11/08 07:13:27;;;;;;;0.30;0.20;;;;;;;10.23;97.20;100286.84;5054487;28;20453;-50
2023/11/08 07:15:53;;;;;;;0.30;0.20;;;;;;;10.22;97.13;100290.44;5054547;28;20550;-49
2023/11/08 07:18:20;;;;;;;0.30;0.20;;;;;;;10.26;97.10;100293.88;5054604;28;20477;-49
2023/11/08 07:20:47;;;;;;;0.30;0.20;;;;;;;10.24;96.87;100290.38;5054562;28;20497;-49
2023/11/08 07:23:14;;;;;;;0.30;0.20;;;;;;;10.30;96.66;100299.06;5054274;28;20563;-49
2023/11/08 07:25:41;;;;;;;0.30;0.20;;;;;;;10.61;96.03;100298.22;5054226;28;20461;-49
2023/11/08 07:28:07;;;;;;;0.30;0.20;;;;;;;10.50;95.49;100300.28;5054063;28;20550;-49
2023/11/08 07:30:34;;;;;;;0.30;0.20;;;;;;;10.59;94.86;100298.25;5041150;28;20442;-49
2023/11/08 07:33:01;;;;;;;0.30;0.20;;;;;;;10.85;93.41;100305.47;5054245;28;20987;-49
2023/11/08 07:35:29;;;;;;;0.30;0.20;;;;;;;10.72;93.06;100309.41;5043668;28;20562;-49
2023/11/08 07:37:55;;;;;;;0.30;0.20;;;;;;;10.80;93.31;100312.69;5049219;28;20985;-49
2023/11/08 07:40:21;;;;;;;0.30;0.20;;;;;;;10.81;92.66;100322.41;5053927;28;20569;-49
2023/11/08 07:42:48;;;;;;;0.30;0.20;;;;;;;10.89;92.77;100323.06;5054032;28;21030;-49
2023/11/08 07:45:15;;;;;;;0.30;0.20;;;;;;;10.73;92.67;100320.91;5053898;28;21030;-49
2023/11/08 07:47:41;;;;;;;0.30;0.20;;;;;;;10.87;92.57;100324.91;5053752;28;20771;-49
2023/11/08 07:50:08;;;;;;;0.30;0.20;;;;;;;10.74;92.02;100327.97;5053905;28;20446;-49
2023/11/08 07:52:35;;;;;;;0.30;0.20;;;;;;;10.76;92.34;100334.97;5054144;28;20545;-49
2023/11/08 07:55:01;;;;;;;0.30;0.20;;;;;;;10.78;92.03;100335.81;5054378;28;20442;-47
2023/11/08 07:57:28;;;;;;;0.30;0.20;;;;;;;10.91;91.62;100333.66;5053673;28;20458;-47
2023/11/08 07:59:54;;;;;;;0.30;0.20;;;;;;;10.90;91.21;100331.94;5052987;28;20517;-46
2023/11/08 08:02:21;;;;;;;0.30;0.20;;;;;;;11.12;90.46;100333.03;5053535;28;20512;-47
2023/11/08 08:04:48;;;;;;;0.30;0.20;;;;;;;10.90;89.81;100337.25;5044123;28;20459;-48
2023/11/08 08:07:15;;;;;;;0.30;0.20;;;;;;;10.91;90.25;100342.50;5033777;28;20480;-46
2023/11/08 08:09:41;;;;;;;0.30;0.20;;;;;;;10.98;90.05;100336.13;5026685;28;21046;-46
2023/11/08 08:12:08;;;;;;;0.30;0.20;;;;;;;11.17;89.92;100341.75;5053485;28;20455;-47
2023/11/08 08:14:35;;;;;;;0.30;0.20;;;;;;;11.26;89.35;100344.13;5053497;28;20837;-47
2023/11/08 08:17:04;;;;;;;0.30;0.20;;;;;;;11.09;89.15;100349.06;5053580;28;20454;-46
2023/11/08 08:19:31;;;;;;;0.30;0.20;;;;;;;11.12;89.57;100346.34;5027486;28;20491;-46
2023/11/08 08:22:01;;;;;;;0.30;0.20;;;;;;;11.22;88.84;100349.56;5053332;28;20455;-46
2023/11/08 08:24:28;;;;;;;0.30;0.20;;;;;;;11.25;88.33;100346.84;5053718;28;20451;-45
2023/11/08 08:26:56;;;;;;;0.30;0.20;;;;;;;11.37;88.54;100350.91;5053157;28;20454;-45
2023/11/08 08:29:24;;;;;;;0.30;0.20;;;;;;;11.44;88.21;100347.16;5045117;28;20464;-45
2023/11/08 08:31:50;;;;;;;0.30;0.20;;;;;;;11.32;88.22;100343.06;5048593;28;20461;-45
2023/11/08 08:34:17;;;;;;;0.30;0.20;;;;;;;11.42;87.07;100344.53;5046975;28;20538;-45
2023/11/08 08:36:57;;;;;;;0.30;0.20;;;;;;;11.83;86.28;100353.03;5045960;28;20942;-46
2023/11/08 08:39:27;;;;;;;0.30;0.20;;;;;;;11.50;86.22;100350.47;5052792;28;20872;-46
2023/11/08 08:41:55;;;;;;;0.30;0.20;;;;;;;11.82;85.72;100354.81;5052784;28;20450;-46
2023/11/08 08:44:23;;;;;;;0.30;0.20;;;;;;;11.94;84.58;100366.00;5053015;28;20454;-45
2023/11/08 08:46:49;;;;;;;0.30;0.20;;;;;;;11.80;84.92;100369.97;5052760;28;20449;-46
2023/11/08 08:49:16;;;;;;;0.30;0.20;;;;;;;11.95;83.85;100371.28;5052560;28;20475;-46
2023/11/08 08:51:46;;;;;;;0.30;0.20;;;;;;;12.12;83.84;100373.38;5052977;28;20447;-46
2023/11/08 08:54:13;;;;;;;0.30;0.20;;;;;;;12.09;84.19;100374.34;5052846;28;20429;-47
2023/11/08 08:56:40;;;;;;;0.30;0.20;;;;;;;12.04;84.32;100373.59;5026769;28;20557;-48
2023/11/08 08:59:06;;;;;;;0.30;0.20;;;;;;;11.92;84.55;100365.16;5052550;28;20826;-49
2023/11/08 09:01:33;;;;;;;0.30;0.20;;;;;;;12.30;83.10;100371.88;5052610;28;20508;-47
2023/11/08 09:03:59;;;;;;;0.30;0.20;;;;;;;12.36;82.81;100364.53;5049078;28;20998;-46
2023/11/08 09:06:26;;;;;;;0.30;0.20;;;;;;;12.31;82.15;100360.28;5033406;28;20889;-46
2023/11/08 09:08:53;;;;;;;0.30;0.20;;;;;;;12.42;82.12;100366.13;5046128;28;20520;-47
2023/11/08 09:11:20;;;;;;;0.30;0.20;;;;;;;12.11;83.76;100367.16;5051572;28;20482;-46
2023/11/08 09:13:47;;;;;;;0.30;0.20;;;;;;;12.14;83.66;100368.84;5052267;28;20454;-46
2023/11/08 09:16:14;;;;;;;0.30;0.20;;;;;;;12.02;84.27;100359.47;5052268;28;20959;-46
2023/11/08 09:18:41;;;;;;;0.30;0.20;;;;;;;12.09;83.19;100366.34;5051902;28;20475;-46
2023/11/08 09:21:07;;;;;;;0.30;0.20;;;;;;;12.12;82.97;100368.03;5052496;28;20498;-46
2023/11/08 09:23:37;;;;;;;0.30;0.20;;;;;;;12.00;83.39;100366.66;5051884;28;20451;-46
2023/11/08 09:26:04;;;;;;;0.30;0.20;;;;;;;12.13;83.17;100360.00;5052089;28;20446;-46
2023/11/08 09:28:30;;;;;;;0.30;0.20;;;;;;;12.27;83.56;100358.66;5050453;28;20557;-46
2023/11/08 09:30:57;;;;;;;0.30;0.20;;;;;;;12.23;83.54;100359.69;5040249;28;20907;-45
2023/11/08 09:33:23;;;;;;;0.30;0.20;;;;;;;12.42;82.23;100364.31;5050672;28;20451;-46
2023/11/08 09:35:51;;;;;;;0.30;0.20;;;;;;;12.48;82.11;100367.72;5050568;28;21031;-45
2023/11/08 09:38:18;;;;;;;0.30;0.20;;;;;;;12.49;81.67;100367.66;5047292;28;20485;-47
2023/11/08 09:40:44;;;;;;;0.30;0.20;;;;;;;12.48;81.79;100355.25;5051518;28;21003;-46
2023/11/08 09:43:11;;;;;;;0.30;0.20;;;;;;;12.60;82.08;100359.25;5051530;28;20449;-46
2023/11/08 09:45:38;;;;;;;0.30;0.20;;;;;;;12.61;82.18;100355.66;5051576;28;20458;-46
2023/11/08 09:48:05;;;;;;;0.30;0.20;;;;;;;12.57;82.30;100362.91;5052140;28;20478;-46
2023/11/08 09:50:33;;;;;;;0.30;0.20;;;;;;;12.47;82.43;100350.81;5051509;28;20451;-46
2023/11/08 09:53:00;;;;;;;0.30;0.20;;;;;;;12.52;83.11;100356.00;5051358;28;20549;-46
2023/11/08 09:55:26;;;;;;;0.30;0.20;;;;;;;12.60;81.93;100344.13;5051458;28;20451;-46
2023/11/08 09:57:55;;;;;;;0.30;0.20;;;;;;;12.49;82.61;100330.31;5051199;28;20457;-45
2023/11/08 10:00:25;;;;;;;0.30;0.20;;;;;;;12.72;82.43;100334.81;5051248;28;20468;-46
2023/11/08 10:02:57;;;;;;;0.30;0.20;;;;;;;12.75;82.03;100322.25;5051348;28;20462;-46
2023/11/08 10:05:24;;;;;;;0.30;0.20;;;;;;;12.91;80.47;100322.53;5037658;28;20444;-46
2023/11/08 10:07:51;;;;;;;0.30;0.20;;;;;;;13.27;80.33;100330.97;5036033;28;20461;-48
2023/11/08 10:10:18;;;;;;;0.30;0.20;;;;;;;13.06;79.54;100323.75;5051689;28;20421;-46
2023/11/08 10:12:45;;;;;;;0.30;0.20;;;;;;;13.34;79.47;100324.47;5050945;28;20530;-46
2023/11/08 10:15:20;;;;;;;0.30;0.20;;;;;;;13.36;79.94;100323.53;5051141;28;20512;-45
2023/11/08 10:17:49;;;;;;;0.30;0.20;;;;;;;13.42;79.81;100326.81;5049837;28;20942;-46
2023/11/08 10:20:37;;;;;;;0.30;0.20;;;;;;;13.49;78.94;100325.66;5050898;28;20864;-47
2023/11/08 10:23:07;;;;;;;0.30;0.20;;;;;;;13.10;79.22;100328.03;5054218;28;20450;-46
2023/11/08 10:25:34;;;;;;;0.30;0.20;;;;;;;13.43;79.56;100335.69;5055303;28;20446;-46
2023/11/08 10:28:04;;;;;;;0.30;0.20;;;;;;;13.22;79.32;100332.94;5055139;28;20971;-46
2023/11/08 10:30:38;;;;;;;0.30;0.20;;;;;;;12.89;79.94;100326.22;5041753;28;20449;-46
2023/11/08 10:33:12;;;;;;;0.30;0.20;;;;;;;13.00;79.48;100321.31;5055179;28;20442;-46
2023/11/08 10:35:40;;;;;;;0.30;0.20;;;;;;;12.87;80.31;100314.69;5043920;28;20841;-46
2023/11/08 10:38:10;;;;;;;0.30;0.20;;;;;;;13.06;79.06;100315.75;5050297;28;20565;-46
2023/11/08 10:40:36;;;;;;;0.30;0.20;;;;;;;13.05;78.91;100319.34;5055203;28;20490;-45
2023/11/08 10:43:04;;;;;;;0.30;0.20;;;;;;;12.93;78.88;100309.16;5054715;28;20454;-47
2023/11/08 10:45:32;;;;;;;0.30;0.20;;;;;;;12.91;78.86;100313.69;5054998;28;20911;-46
2023/11/08 10:48:00;;;;;;;0.30;0.20;;;;;;;12.90;78.66;100317.28;5054775;28;20458;-46
2023/11/08 10:50:27;;;;;;;0.30;0.20;;;;;;;13.06;79.00;100313.09;5055199;28;20939;-46
2023/11/08 10:52:54;;;;;;;0.30;0.20;;;;;;;13.15;79.05;100304.69;5055148;28;20454;-46
2023/11/08 10:55:25;;;;;;;0.30;0.20;;;;;;;13.02;79.13;100306.13;5055289;28;20541;-46
2023/11/08 10:57:58;;;;;;;0.30;0.20;;;;;;;13.21;77.78;100308.97;5054745;28;21085;-46
2023/11/08 11:00:26;;;;;;;0.30;0.20;;;;;;;13.19;78.27;100311.72;5055106;28;20510;-46
2023/11/08 11:03:05;;;;;;;0.30;0.20;;;;;;;13.50;77.51;100305.16;5054596;28;20553;-46
2023/11/08 11:05:36;;;;;;;0.30;0.20;;;;;;;13.45;76.54;100300.00;5039075;28;20805;-46
2023/11/08 11:08:07;;;;;;;0.30;0.20;;;;;;;13.46;77.26;100306.22;5041094;28;20462;-48
2023/11/08 11:10:33;;;;;;;0.30;0.20;;;;;;;13.44;77.40;100295.59;5054562;28;20446;-46
2023/11/08 11:13:00;;;;;;;0.30;0.20;;;;;;;13.45;77.13;100297.34;5054547;28;20546;-45
2023/11/08 11:15:39;;;;;;;0.30;0.20;;;;;;;13.23;77.42;100289.31;5054317;28;20455;-49
2023/11/08 11:18:12;;;;;;;0.30;0.20;;;;;;;13.48;77.03;100296.34;5032166;28;20520;-45
2023/11/08 11:20:44;;;;;;;0.50;0.50;;;;;;;13.41;77.38;100293.03;5054580;28;20499;-45
2023/11/08 11:23:34;;;;;;;0.30;0.20;;;;;;;13.46;77.61;100291.06;5044458;28;20491;-46
2023/11/08 11:26:02;;;;;;;0.30;0.20;;;;;;;13.18;77.36;100296.63;5027852;28;20794;-45
2023/11/08 11:28:56;;;;;;;0.40;0.30;;;;;;;13.37;78.44;100294.09;5053150;28;20912;-45
2023/11/08 11:31:36;;;;;;;0.30;0.20;;;;;;;13.11;78.99;100292.41;5046283;28;20449;-46
2023/11/08 11:34:27;;;;;;;0.30;0.20;;;;;;;13.15;77.81;100283.34;5023610;28;20453;-46
2023/11/08 11:37:00;;;;;;;0.30;0.20;;;;;;;13.28;77.50;100289.09;5047553;28;20429;-46
2023/11/08 11:39:31;;;;;;;0.30;0.20;;;;;;;13.18;78.92;100279.72;5054348;28;20544;-45